sensor_id;sensor_type;location;lat;lon;timestamp;pressure;altitude;pressure_sealevel;temperature;humidity
12209;BME280;6167;43.080;25.634;2023-02-10T00:00:46;102036.97;;;-8.51;100.00
12209;BME280;6167;43.080;25.634;2023-02-10T00:03:13;102048.00;;;-8.52;100.00
12209;BME280;6167;43.080;25.634;2023-02-10T00:05:40;102049.59;;;-8.54;100.00
12209;BME280;6167;43.080;25.634;2023-02-10T00:08:07;102052.28;;;-8.64;100.00
12209;BME280;6167;43.080;25.634;2023-02-10T00:10:34;102039.38;;;-8.77;100.00
12209;BME280;6167;43.080;25.634;2023-02-10T00:13:01;102052.22;;;-9.12;100.00
12209;BME280;6167;43.080;25.634;2023-02-10T00:15:28;102037.63;;;-9.25;100.00
12209;BME280;6167;43.080;25.634;2023-02-10T00:17:59;102041.38;;;-9.31;100.00
12209;BME280;6167;43.080;25.634;2023-02-10T00:20:26;102043.59;;;-9.48;100.00
12209;BME280;6167;43.080;25.634;2023-02-10T00:22:53;102032.13;;;-9.53;100.00
12209;BME280;6167;43.080;25.634;2023-02-10T00:25:20;102026.69;;;-9.34;100.00
12209;BME280;6167;43.080;25.634;2023-02-10T00:27:47;102024.81;;;-9.37;100.00
12209;BME280;6167;43.080;25.634;2023-02-10T00:30:14;102039.94;;;-9.28;100.00
12209;BME280;6167;43.080;25.634;2023-02-10T00:32:48;102034.03;;;-9.27;100.00
12209;BME280;6167;43.080;25.634;2023-02-10T00:35:17;101991.69;;;-9.45;100.00
12209;BME280;6167;43.080;25.634;2023-02-10T00:37:44;101991.25;;;-9.28;100.00
12209;BME280;6167;43.080;25.634;2023-02-10T00:40:13;102019.88;;;-9.10;100.00
12209;BME280;6167;43.080;25.634;2023-02-10T00:42:40;101978.13;;;-9.21;100.00
12209;BME280;6167;43.080;25.634;2023-02-10T00:45:07;102012.22;;;-8.98;100.00
12209;BME280;6167;43.080;25.634;2023-02-10T00:47:35;102002.53;;;-9.38;100.00
12209;BME280;6167;43.080;25.634;2023-02-10T00:50:02;102009.19;;;-9.51;100.00
12209;BME280;6167;43.080;25.634;2023-02-10T00:52:31;102007.38;;;-9.52;100.00
12209;BME280;6167;43.080;25.634;2023-02-10T00:54:58;102013.41;;;-9.52;100.00
12209;BME280;6167;43.080;25.634;2023-02-10T00:57:25;102006.03;;;-9.71;100.00
12209;BME280;6167;43.080;25.634;2023-02-10T00:59:53;102000.91;;;-9.71;100.00
12209;BME280;6167;43.080;25.634;2023-02-10T01:02:20;101988.88;;;-9.83;100.00
12209;BME280;6167;43.080;25.634;2023-02-10T01:04:48;102001.25;;;-9.78;100.00
12209;BME280;6167;43.080;25.634;2023-02-10T01:07:16;102004.78;;;-9.76;100.00
12209;BME280;6167;43.080;25.634;2023-02-10T01:09:44;102007.84;;;-9.58;100.00
12209;BME280;6167;43.080;25.634;2023-02-10T01:12:11;102006.38;;;-9.54;100.00
12209;BME280;6167;43.080;25.634;2023-02-10T01:14:41;101998.38;;;-9.47;100.00
12209;BME280;6167;43.080;25.634;2023-02-10T01:17:08;102002.50;;;-9.49;100.00
12209;BME280;6167;43.080;25.634;2023-02-10T01:19:35;102002.94;;;-9.66;100.00
12209;BME280;6167;43.080;25.634;2023-02-10T01:22:02;102004.59;;;-9.67;100.00
12209;BME280;6167;43.080;25.634;2023-02-10T01:24:29;102005.16;;;-9.71;100.00
12209;BME280;6167;43.080;25.634;2023-02-10T01:26:59;102005.59;;;-9.65;100.00
12209;BME280;6167;43.080;25.634;2023-02-10T01:29:28;102014.16;;;-9.76;100.00
12209;BME280;6167;43.080;25.634;2023-02-10T01:31:55;101999.78;;;-9.74;100.00
12209;BME280;6167;43.080;25.634;2023-02-10T01:34:22;101996.56;;;-9.83;100.00
12209;BME280;6167;43.080;25.634;2023-02-10T01:36:49;101990.84;;;-10.02;100.00
12209;BME280;6167;43.080;25.634;2023-02-10T01:39:16;101991.78;;;-10.12;100.00
12209;BME280;6167;43.080;25.634;2023-02-10T01:41:44;102006.63;;;-9.96;100.00
12209;BME280;6167;43.080;25.634;2023-02-10T01:47:14;102007.88;;;-9.91;100.00
12209;BME280;6167;43.080;25.634;2023-02-10T01:49:45;101985.31;;;-9.85;100.00
12209;BME280;6167;43.080;25.634;2023-02-10T01:52:18;101988.41;;;-9.89;100.00
12209;BME280;6167;43.080;25.634;2023-02-10T01:54:50;101997.44;;;-9.83;100.00
12209;BME280;6167;43.080;25.634;2023-02-10T01:57:19;101983.41;;;-9.88;100.00
12209;BME280;6167;43.080;25.634;2023-02-10T01:59:47;101978.88;;;-10.14;100.00
12209;BME280;6167;43.080;25.634;2023-02-10T02:02:17;101989.59;;;-10.08;100.00
12209;BME280;6167;43.080;25.634;2023-02-10T02:04:48;101994.72;;;-9.96;100.00
12209;BME280;6167;43.080;25.634;2023-02-10T02:07:16;101980.41;;;-9.82;100.00
12209;BME280;6167;43.080;25.634;2023-02-10T02:09:44;101979.75;;;-9.80;100.00
12209;BME280;6167;43.080;25.634;2023-02-10T02:12:19;101951.78;;;-10.00;100.00
12209;BME280;6167;43.080;25.634;2023-02-10T02:14:54;101977.63;;;-9.85;100.00
12209;BME280;6167;43.080;25.634;2023-02-10T02:17:30;101980.06;;;-9.87;100.00
12209;BME280;6167;43.080;25.634;2023-02-10T02:20:41;101990.50;;;-9.95;100.00
12209;BME280;6167;43.080;25.634;2023-02-10T02:23:28;101993.41;;;-10.02;100.00
12209;BME280;6167;43.080;25.634;2023-02-10T02:29:15;101973.72;;;-10.37;100.00
12209;BME280;6167;43.080;25.634;2023-02-10T02:31:57;101961.41;;;-10.31;100.00
12209;BME280;6167;43.080;25.634;2023-02-10T02:34:31;101962.78;;;-10.46;100.00
12209;BME280;6167;43.080;25.634;2023-02-10T02:37:03;101974.69;;;-10.47;100.00
12209;BME280;6167;43.080;25.634;2023-02-10T02:39:32;101970.72;;;-10.43;100.00
12209;BME280;6167;43.080;25.634;2023-02-10T02:42:14;101961.03;;;-10.35;100.00
12209;BME280;6167;43.080;25.634;2023-02-10T02:44:42;101969.19;;;-10.29;100.00
12209;BME280;6167;43.080;25.634;2023-02-10T02:47:17;101964.84;;;-10.30;100.00
12209;BME280;6167;43.080;25.634;2023-02-10T02:49:52;101955.16;;;-10.34;100.00
12209;BME280;6167;43.080;25.634;2023-02-10T02:52:32;101970.69;;;-10.21;100.00
12209;BME280;6167;43.080;25.634;2023-02-10T02:55:07;101968.84;;;-10.34;100.00
12209;BME280;6167;43.080;25.634;2023-02-10T02:57:44;101965.88;;;-10.50;100.00
12209;BME280;6167;43.080;25.634;2023-02-10T03:00:14;101966.81;;;-10.38;100.00
12209;BME280;6167;43.080;25.634;2023-02-10T03:02:45;101958.38;;;-10.37;100.00
12209;BME280;6167;43.080;25.634;2023-02-10T03:05:17;101966.16;;;-10.35;100.00
12209;BME280;6167;43.080;25.634;2023-02-10T03:07:45;101976.25;;;-9.92;100.00
12209;BME280;6167;43.080;25.634;2023-02-10T03:10:12;101964.06;;;-9.73;100.00
12209;BME280;6167;43.080;25.634;2023-02-10T03:12:39;101967.69;;;-9.92;100.00
12209;BME280;6167;43.080;25.634;2023-02-10T03:15:06;101965.78;;;-10.07;100.00
12209;BME280;6167;43.080;25.634;2023-02-10T03:17:33;101961.63;;;-10.16;100.00
12209;BME280;6167;43.080;25.634;2023-02-10T03:20:01;101953.81;;;-10.41;100.00
12209;BME280;6167;43.080;25.634;2023-02-10T03:22:29;101947.69;;;-10.43;100.00
12209;BME280;6167;43.080;25.634;2023-02-10T03:24:56;101952.56;;;-10.46;100.00
12209;BME280;6167;43.080;25.634;2023-02-10T03:27:22;101946.69;;;-10.45;100.00
12209;BME280;6167;43.080;25.634;2023-02-10T03:29:50;101941.72;;;-10.54;100.00
12209;BME280;6167;43.080;25.634;2023-02-10T03:32:18;101934.59;;;-10.58;100.00
12209;BME280;6167;43.080;25.634;2023-02-10T03:34:46;101931.50;;;-10.54;100.00
12209;BME280;6167;43.080;25.634;2023-02-10T03:37:14;101928.44;;;-10.71;100.00
12209;BME280;6167;43.080;25.634;2023-02-10T03:39:41;101914.34;;;-10.66;100.00
12209;BME280;6167;43.080;25.634;2023-02-10T03:42:08;101926.53;;;-10.74;100.00
12209;BME280;6167;43.080;25.634;2023-02-10T03:44:37;101920.47;;;-10.64;100.00
12209;BME280;6167;43.080;25.634;2023-02-10T03:47:04;101922.50;;;-10.60;100.00
12209;BME280;6167;43.080;25.634;2023-02-10T03:49:31;101904.13;;;-10.66;100.00
12209;BME280;6167;43.080;25.634;2023-02-10T03:51:58;101907.97;;;-10.71;100.00
12209;BME280;6167;43.080;25.634;2023-02-10T03:54:29;101894.72;;;-10.78;100.00
12209;BME280;6167;43.080;25.634;2023-02-10T03:56:56;101906.19;;;-10.72;100.00
12209;BME280;6167;43.080;25.634;2023-02-10T03:59:23;101913.44;;;-10.67;100.00
12209;BME280;6167;43.080;25.634;2023-02-10T04:01:50;101896.63;;;-10.75;100.00
12209;BME280;6167;43.080;25.634;2023-02-10T04:04:17;101907.84;;;-10.73;100.00
12209;BME280;6167;43.080;25.634;2023-02-10T04:06:44;101914.41;;;-10.77;100.00
12209;BME280;6167;43.080;25.634;2023-02-10T04:09:11;101910.66;;;-10.70;100.00
12209;BME280;6167;43.080;25.634;2023-02-10T04:11:39;101920.72;;;-10.83;100.00
12209;BME280;6167;43.080;25.634;2023-02-10T04:14:06;101920.34;;;-11.09;100.00
12209;BME280;6167;43.080;25.634;2023-02-10T04:16:33;101904.66;;;-11.14;100.00
12209;BME280;6167;43.080;25.634;2023-02-10T04:19:00;101902.75;;;-11.17;100.00
12209;BME280;6167;43.080;25.634;2023-02-10T04:21:27;101907.47;;;-11.21;100.00
12209;BME280;6167;43.080;25.634;2023-02-10T04:23:54;101917.16;;;-11.39;100.00
12209;BME280;6167;43.080;25.634;2023-02-10T04:26:21;101914.94;;;-11.24;100.00
12209;BME280;6167;43.080;25.634;2023-02-10T04:28:51;101897.09;;;-11.13;100.00
12209;BME280;6167;43.080;25.634;2023-02-10T04:31:18;101919.81;;;-11.05;100.00
12209;BME280;6167;43.080;25.634;2023-02-10T04:33:45;101913.28;;;-11.24;100.00
12209;BME280;6167;43.080;25.634;2023-02-10T04:36:12;101908.47;;;-11.41;100.00
12209;BME280;6167;43.080;25.634;2023-02-10T04:38:39;101912.81;;;-11.40;100.00
12209;BME280;6167;43.080;25.634;2023-02-10T04:41:06;101914.06;;;-11.35;100.00
12209;BME280;6167;43.080;25.634;2023-02-10T04:43:33;101907.13;;;-11.48;100.00
12209;BME280;6167;43.080;25.634;2023-02-10T04:46:01;101907.88;;;-11.49;100.00
12209;BME280;6167;43.080;25.634;2023-02-10T04:48:29;101897.34;;;-11.31;100.00
12209;BME280;6167;43.080;25.634;2023-02-10T04:50:56;101900.31;;;-11.15;100.00
12209;BME280;6167;43.080;25.634;2023-02-10T04:53:23;101900.91;;;-11.29;100.00
12209;BME280;6167;43.080;25.634;2023-02-10T04:55:51;101902.28;;;-11.55;100.00
12209;BME280;6167;43.080;25.634;2023-02-10T04:58:18;101902.66;;;-11.50;100.00
12209;BME280;6167;43.080;25.634;2023-02-10T05:00:47;101896.69;;;-11.29;100.00
12209;BME280;6167;43.080;25.634;2023-02-10T05:03:16;101897.16;;;-11.55;100.00
12209;BME280;6167;43.080;25.634;2023-02-10T05:05:43;101879.91;;;-11.79;100.00
12209;BME280;6167;43.080;25.634;2023-02-10T05:08:11;101903.34;;;-11.73;100.00
12209;BME280;6167;43.080;25.634;2023-02-10T05:10:38;101903.94;;;-11.87;100.00
12209;BME280;6167;43.080;25.634;2023-02-10T05:13:05;101901.41;;;-11.87;100.00
12209;BME280;6167;43.080;25.634;2023-02-10T05:15:32;101905.03;;;-11.41;100.00
12209;BME280;6167;43.080;25.634;2023-02-10T05:17:59;101909.88;;;-11.13;100.00
12209;BME280;6167;43.080;25.634;2023-02-10T05:20:29;101909.84;;;-11.34;100.00
12209;BME280;6167;43.080;25.634;2023-02-10T05:22:56;101915.78;;;-11.46;100.00
12209;BME280;6167;43.080;25.634;2023-02-10T05:25:23;101930.22;;;-11.56;100.00
12209;BME280;6167;43.080;25.634;2023-02-10T05:27:51;101928.38;;;-11.69;100.00
12209;BME280;6167;43.080;25.634;2023-02-10T05:30:18;101912.75;;;-12.04;100.00
12209;BME280;6167;43.080;25.634;2023-02-10T05:32:45;101929.69;;;-11.84;100.00
12209;BME280;6167;43.080;25.634;2023-02-10T05:35:12;101928.41;;;-11.79;100.00
12209;BME280;6167;43.080;25.634;2023-02-10T05:37:41;101925.56;;;-11.72;100.00
12209;BME280;6167;43.080;25.634;2023-02-10T05:40:09;101928.25;;;-11.70;100.00
12209;BME280;6167;43.080;25.634;2023-02-10T05:42:36;101895.66;;;-11.85;100.00
12209;BME280;6167;43.080;25.634;2023-02-10T05:45:03;101925.97;;;-11.77;100.00
12209;BME280;6167;43.080;25.634;2023-02-10T05:47:31;101919.09;;;-11.78;100.00
12209;BME280;6167;43.080;25.634;2023-02-10T05:49:58;101925.03;;;-11.68;100.00
12209;BME280;6167;43.080;25.634;2023-02-10T05:52:24;101929.19;;;-11.48;100.00
12209;BME280;6167;43.080;25.634;2023-02-10T05:54:56;101928.78;;;-11.11;100.00
12209;BME280;6167;43.080;25.634;2023-02-10T05:57:24;101925.75;;;-10.73;100.00
12209;BME280;6167;43.080;25.634;2023-02-10T05:59:50;101925.78;;;-10.39;100.00
12209;BME280;6167;43.080;25.634;2023-02-10T06:02:18;101939.78;;;-10.34;100.00
12209;BME280;6167;43.080;25.634;2023-02-10T06:04:45;101926.91;;;-10.13;100.00
12209;BME280;6167;43.080;25.634;2023-02-10T06:07:12;101934.66;;;-9.89;100.00
12209;BME280;6167;43.080;25.634;2023-02-10T06:09:39;101916.13;;;-9.04;100.00
12209;BME280;6167;43.080;25.634;2023-02-10T06:12:08;101919.44;;;-8.05;100.00
12209;BME280;6167;43.080;25.634;2023-02-10T06:14:37;101925.25;;;-7.30;100.00
12209;BME280;6167;43.080;25.634;2023-02-10T06:17:05;101928.47;;;-7.46;100.00
12209;BME280;6167;43.080;25.634;2023-02-10T06:19:39;101887.72;;;-7.27;100.00
12209;BME280;6167;43.080;25.634;2023-02-10T06:22:07;101905.38;;;-6.36;100.00
12209;BME280;6167;43.080;25.634;2023-02-10T06:24:36;101919.34;;;-6.17;100.00
12209;BME280;6167;43.080;25.634;2023-02-10T06:27:11;101895.72;;;-6.25;100.00
12209;BME280;6167;43.080;25.634;2023-02-10T06:29:39;101879.47;;;-6.95;100.00
12209;BME280;6167;43.080;25.634;2023-02-10T06:32:06;101903.22;;;-6.99;100.00
12209;BME280;6167;43.080;25.634;2023-02-10T06:34:34;101925.28;;;-6.61;100.00
12209;BME280;6167;43.080;25.634;2023-02-10T06:37:01;101919.41;;;-6.45;100.00
12209;BME280;6167;43.080;25.634;2023-02-10T06:39:27;101925.69;;;-6.40;100.00
12209;BME280;6167;43.080;25.634;2023-02-10T06:41:55;101906.53;;;-6.45;100.00
12209;BME280;6167;43.080;25.634;2023-02-10T06:44:24;101941.22;;;-5.96;100.00
12209;BME280;6167;43.080;25.634;2023-02-10T06:46:51;101944.47;;;-5.55;100.00
12209;BME280;6167;43.080;25.634;2023-02-10T06:49:18;101937.59;;;-5.39;100.00
12209;BME280;6167;43.080;25.634;2023-02-10T06:51:45;101933.94;;;-4.66;100.00
12209;BME280;6167;43.080;25.634;2023-02-10T06:54:12;101925.78;;;-3.22;100.00
12209;BME280;6167;43.080;25.634;2023-02-10T06:56:39;101927.66;;;-3.37;100.00
12209;BME280;6167;43.080;25.634;2023-02-10T06:59:07;101935.97;;;-4.61;99.64
12209;BME280;6167;43.080;25.634;2023-02-10T07:01:35;101938.56;;;-5.23;97.26
12209;BME280;6167;43.080;25.634;2023-02-10T07:04:03;101928.28;;;-5.52;99.26
12209;BME280;6167;43.080;25.634;2023-02-10T07:06:29;101948.47;;;-5.74;100.00
12209;BME280;6167;43.080;25.634;2023-02-10T07:08:57;101939.72;;;-5.32;100.00
12209;BME280;6167;43.080;25.634;2023-02-10T07:11:24;101942.94;;;-5.36;97.61
12209;BME280;6167;43.080;25.634;2023-02-10T07:13:50;101932.88;;;-5.32;97.60
12209;BME280;6167;43.080;25.634;2023-02-10T07:16:17;101935.09;;;-5.23;97.32
12209;BME280;6167;43.080;25.634;2023-02-10T07:18:46;101936.88;;;-5.37;97.80
12209;BME280;6167;43.080;25.634;2023-02-10T07:21:14;101938.88;;;-5.47;98.27
12209;BME280;6167;43.080;25.634;2023-02-10T07:23:41;101946.66;;;-5.92;100.00
12209;BME280;6167;43.080;25.634;2023-02-10T07:26:08;101950.59;;;-5.53;100.00
12209;BME280;6167;43.080;25.634;2023-02-10T07:28:36;101939.13;;;-5.58;100.00
12209;BME280;6167;43.080;25.634;2023-02-10T07:31:03;101956.91;;;-5.33;100.00
12209;BME280;6167;43.080;25.634;2023-02-10T07:33:30;101951.16;;;-5.43;100.00
12209;BME280;6167;43.080;25.634;2023-02-10T07:36:00;101941.41;;;-4.87;100.00
12209;BME280;6167;43.080;25.634;2023-02-10T07:38:28;101955.28;;;-4.85;100.00
12209;BME280;6167;43.080;25.634;2023-02-10T07:40:55;101944.25;;;-4.34;100.00
12209;BME280;6167;43.080;25.634;2023-02-10T07:43:22;101944.16;;;-4.03;100.00
12209;BME280;6167;43.080;25.634;2023-02-10T07:45:49;101937.84;;;-3.92;98.06
12209;BME280;6167;43.080;25.634;2023-02-10T07:48:17;101939.13;;;-3.84;93.58
12209;BME280;6167;43.080;25.634;2023-02-10T07:50:46;101937.09;;;-3.89;93.37
12209;BME280;6167;43.080;25.634;2023-02-10T07:53:15;101927.84;;;-4.02;92.62
12209;BME280;6167;43.080;25.634;2023-02-10T07:55:42;101937.34;;;-3.85;93.25
12209;BME280;6167;43.080;25.634;2023-02-10T07:58:09;101932.81;;;-3.55;99.52
12209;BME280;6167;43.080;25.634;2023-02-10T08:00:36;101918.91;;;0.65;100.00
12209;BME280;6167;43.080;25.634;2023-02-10T08:03:03;101903.19;;;0.62;100.00
12209;BME280;6167;43.080;25.634;2023-02-10T08:05:35;101918.72;;;-2.13;86.73
12209;BME280;6167;43.080;25.634;2023-02-10T08:08:03;101915.38;;;-2.30;84.49
12209;BME280;6167;43.080;25.634;2023-02-10T08:10:32;101916.31;;;-2.47;83.90
12209;BME280;6167;43.080;25.634;2023-02-10T08:12:59;101920.53;;;-2.68;84.71
12209;BME280;6167;43.080;25.634;2023-02-10T08:15:26;101908.69;;;-2.44;84.80
12209;BME280;6167;43.080;25.634;2023-02-10T08:17:53;101917.00;;;-2.51;83.82
12209;BME280;6167;43.080;25.634;2023-02-10T08:20:20;101918.00;;;-2.67;89.07
12209;BME280;6167;43.080;25.634;2023-02-10T08:22:46;101914.75;;;-2.44;86.28
12209;BME280;6167;43.080;25.634;2023-02-10T08:25:18;101912.78;;;-2.11;87.21
12209;BME280;6167;43.080;25.634;2023-02-10T08:27:46;101914.88;;;-1.60;83.42
12209;BME280;6167;43.080;25.634;2023-02-10T08:30:14;101905.31;;;-1.41;79.08
12209;BME280;6167;43.080;25.634;2023-02-10T08:32:41;101909.41;;;-1.04;90.56
12209;BME280;6167;43.080;25.634;2023-02-10T08:35:07;101907.59;;;-0.37;100.00
12209;BME280;6167;43.080;25.634;2023-02-10T08:37:35;101903.69;;;0.51;94.80
12209;BME280;6167;43.080;25.634;2023-02-10T08:40:02;101897.84;;;-0.18;75.58
12209;BME280;6167;43.080;25.634;2023-02-10T08:42:31;101900.88;;;-0.78;75.75
12209;BME280;6167;43.080;25.634;2023-02-10T08:45:00;101895.59;;;-0.79;73.71
12209;BME280;6167;43.080;25.634;2023-02-10T08:47:29;101884.13;;;-1.08;77.16
12209;BME280;6167;43.080;25.634;2023-02-10T08:49:59;101897.94;;;-0.87;76.92
12209;BME280;6167;43.080;25.634;2023-02-10T08:52:26;101889.56;;;-0.32;88.72
12209;BME280;6167;43.080;25.634;2023-02-10T08:54:54;101883.06;;;-0.19;78.02
12209;BME280;6167;43.080;25.634;2023-02-10T08:57:21;101883.75;;;-0.49;73.69
12209;BME280;6167;43.080;25.634;2023-02-10T08:59:48;101883.88;;;-0.46;75.24
12209;BME280;6167;43.080;25.634;2023-02-10T09:02:20;101886.47;;;-0.70;74.94
12209;BME280;6167;43.080;25.634;2023-02-10T09:04:47;101885.72;;;-0.43;77.83
12209;BME280;6167;43.080;25.634;2023-02-10T09:07:13;101877.53;;;-0.05;76.60
12209;BME280;6167;43.080;25.634;2023-02-10T09:09:42;101879.22;;;-0.07;71.71
12209;BME280;6167;43.080;25.634;2023-02-10T09:12:10;101883.53;;;-0.07;73.53
12209;BME280;6167;43.080;25.634;2023-02-10T09:14:37;101863.88;;;0.28;73.18
12209;BME280;6167;43.080;25.634;2023-02-10T09:17:04;101873.84;;;0.40;69.80
12209;BME280;6167;43.080;25.634;2023-02-10T09:19:35;101865.00;;;0.34;69.74
12209;BME280;6167;43.080;25.634;2023-02-10T09:22:02;101864.00;;;0.06;71.33
12209;BME280;6167;43.080;25.634;2023-02-10T09:24:29;101861.94;;;-0.05;71.36
12209;BME280;6167;43.080;25.634;2023-02-10T09:26:56;101864.31;;;0.40;74.29
12209;BME280;6167;43.080;25.634;2023-02-10T09:29:23;101867.13;;;1.61;69.01
12209;BME280;6167;43.080;25.634;2023-02-10T09:31:50;101847.81;;;1.88;65.95
12209;BME280;6167;43.080;25.634;2023-02-10T09:34:17;101850.38;;;2.19;65.76
12209;BME280;6167;43.080;25.634;2023-02-10T09:36:45;101856.00;;;2.36;64.32
12209;BME280;6167;43.080;25.634;2023-02-10T09:39:12;101843.91;;;2.39;61.90
12209;BME280;6167;43.080;25.634;2023-02-10T09:42:07;101840.75;;;1.84;60.21
12209;BME280;6167;43.080;25.634;2023-02-10T09:44:37;101820.06;;;2.24;62.04
12209;BME280;6167;43.080;25.634;2023-02-10T09:47:29;101835.78;;;1.93;59.50
12209;BME280;6167;43.080;25.634;2023-02-10T09:50:08;101822.31;;;2.11;60.57
12209;BME280;6167;43.080;25.634;2023-02-10T09:52:52;101812.19;;;2.60;61.39
12209;BME280;6167;43.080;25.634;2023-02-10T09:55:26;101805.06;;;3.34;58.72
12209;BME280;6167;43.080;25.634;2023-02-10T09:57:57;101798.31;;;3.45;55.52
12209;BME280;6167;43.080;25.634;2023-02-10T10:00:29;101804.94;;;2.86;54.60
12209;BME280;6167;43.080;25.634;2023-02-10T10:02:57;101808.34;;;2.45;56.36
12209;BME280;6167;43.080;25.634;2023-02-10T10:05:36;101803.25;;;2.88;58.71
12209;BME280;6167;43.080;25.634;2023-02-10T10:08:14;101799.81;;;3.31;58.42
12209;BME280;6167;43.080;25.634;2023-02-10T10:10:44;101786.59;;;3.25;55.38
12209;BME280;6167;43.080;25.634;2023-02-10T10:13:14;101789.34;;;3.33;56.17
12209;BME280;6167;43.080;25.634;2023-02-10T10:15:49;101781.50;;;3.79;54.84
12209;BME280;6167;43.080;25.634;2023-02-10T10:18:25;101779.94;;;4.43;52.83
12209;BME280;6167;43.080;25.634;2023-02-10T10:21:01;101778.28;;;4.48;52.33
12209;BME280;6167;43.080;25.634;2023-02-10T10:23:42;101778.25;;;4.47;49.79
12209;BME280;6167;43.080;25.634;2023-02-10T10:26:20;101759.63;;;4.27;50.76
12209;BME280;6167;43.080;25.634;2023-02-10T10:29:01;101770.06;;;4.26;49.40
12209;BME280;6167;43.080;25.634;2023-02-10T10:31:37;101753.84;;;4.51;47.40
12209;BME280;6167;43.080;25.634;2023-02-10T10:34:11;101773.63;;;4.91;47.95
12209;BME280;6167;43.080;25.634;2023-02-10T10:36:43;101761.66;;;4.46;45.77
12209;BME280;6167;43.080;25.634;2023-02-10T10:39:16;101765.44;;;3.15;46.86
12209;BME280;6167;43.080;25.634;2023-02-10T10:41:49;101755.34;;;3.31;47.74
12209;BME280;6167;43.080;25.634;2023-02-10T10:44:17;101760.03;;;3.04;47.86
12209;BME280;6167;43.080;25.634;2023-02-10T10:46:47;101750.53;;;2.67;50.17
12209;BME280;6167;43.080;25.634;2023-02-10T10:49:15;101752.13;;;3.01;51.24
12209;BME280;6167;43.080;25.634;2023-02-10T10:51:43;101744.22;;;2.20;51.15
12209;BME280;6167;43.080;25.634;2023-02-10T10:54:15;101736.25;;;3.37;52.30
12209;BME280;6167;43.080;25.634;2023-02-10T10:56:45;101739.22;;;4.06;51.84
12209;BME280;6167;43.080;25.634;2023-02-10T10:59:17;101733.31;;;4.21;51.20
12209;BME280;6167;43.080;25.634;2023-02-10T11:01:47;101724.38;;;4.07;50.99
12209;BME280;6167;43.080;25.634;2023-02-10T11:04:16;101731.69;;;4.28;50.68
12209;BME280;6167;43.080;25.634;2023-02-10T11:06:47;101715.00;;;3.67;49.40
12209;BME280;6167;43.080;25.634;2023-02-10T11:09:35;101723.34;;;3.97;49.24
12209;BME280;6167;43.080;25.634;2023-02-10T11:12:05;101720.75;;;4.58;49.67
12209;BME280;6167;43.080;25.634;2023-02-10T11:14:37;101728.59;;;4.56;47.60
12209;BME280;6167;43.080;25.634;2023-02-10T11:17:18;101724.38;;;4.07;48.42
12209;BME280;6167;43.080;25.634;2023-02-10T11:19:56;101714.16;;;4.24;49.43
12209;BME280;6167;43.080;25.634;2023-02-10T11:22:24;101711.34;;;4.10;49.70
12209;BME280;6167;43.080;25.634;2023-02-10T11:24:56;101708.28;;;4.41;49.63
12209;BME280;6167;43.080;25.634;2023-02-10T11:27:24;101694.78;;;4.11;50.30
12209;BME280;6167;43.080;25.634;2023-02-10T11:29:54;101688.16;;;4.37;48.17
12209;BME280;6167;43.080;25.634;2023-02-10T11:32:24;101684.47;;;4.23;49.46
12209;BME280;6167;43.080;25.634;2023-02-10T11:34:52;101682.22;;;4.49;48.31
12209;BME280;6167;43.080;25.634;2023-02-10T11:37:23;101679.16;;;4.85;48.60
12209;BME280;6167;43.080;25.634;2023-02-10T11:39:56;101683.50;;;4.15;46.66
12209;BME280;6167;43.080;25.634;2023-02-10T11:42:25;101680.78;;;4.74;47.90
12209;BME280;6167;43.080;25.634;2023-02-10T11:44:56;101663.88;;;5.26;45.65
12209;BME280;6167;43.080;25.634;2023-02-10T11:47:24;101660.63;;;5.51;44.69
12209;BME280;6167;43.080;25.634;2023-02-10T11:49:52;101658.44;;;5.08;45.42
12209;BME280;6167;43.080;25.634;2023-02-10T11:52:22;101653.03;;;4.93;45.28
12209;BME280;6167;43.080;25.634;2023-02-10T11:54:50;101652.91;;;4.82;44.69
12209;BME280;6167;43.080;25.634;2023-02-10T11:57:26;101659.66;;;5.43;43.48
12209;BME280;6167;43.080;25.634;2023-02-10T12:00:19;101656.13;;;5.41;43.24
12209;BME280;6167;43.080;25.634;2023-02-10T12:03:28;101645.50;;;5.26;42.13
12209;BME280;6167;43.080;25.634;2023-02-10T12:06:06;101661.53;;;4.72;44.35
12209;BME280;6167;43.080;25.634;2023-02-10T12:08:42;101652.03;;;4.81;43.30
12209;BME280;6167;43.080;25.634;2023-02-10T12:11:19;101647.59;;;4.74;42.60
12209;BME280;6167;43.080;25.634;2023-02-10T12:13:54;101666.34;;;4.38;44.89
12209;BME280;6167;43.080;25.634;2023-02-10T12:16:31;101661.44;;;4.64;43.07
12209;BME280;6167;43.080;25.634;2023-02-10T12:19:04;101658.63;;;4.47;44.19
12209;BME280;6167;43.080;25.634;2023-02-10T12:22:03;101642.59;;;4.25;44.37
12209;BME280;6167;43.080;25.634;2023-02-10T12:24:57;101647.94;;;4.32;43.31
12209;BME280;6167;43.080;25.634;2023-02-10T12:27:37;101637.59;;;4.43;42.67
12209;BME280;6167;43.080;25.634;2023-02-10T12:30:29;101638.38;;;5.10;42.52
12209;BME280;6167;43.080;25.634;2023-02-10T12:33:07;101640.69;;;4.84;43.11
12209;BME280;6167;43.080;25.634;2023-02-10T12:35:48;101634.47;;;4.71;42.70
12209;BME280;6167;43.080;25.634;2023-02-10T12:38:28;101630.03;;;4.67;41.90
12209;BME280;6167;43.080;25.634;2023-02-10T12:41:04;101629.91;;;4.55;42.79
12209;BME280;6167;43.080;25.634;2023-02-10T12:43:48;101620.16;;;4.45;41.45
12209;BME280;6167;43.080;25.634;2023-02-10T12:46:26;101626.88;;;4.96;41.38
12209;BME280;6167;43.080;25.634;2023-02-10T12:49:20;101614.59;;;4.93;42.18
12209;BME280;6167;43.080;25.634;2023-02-10T12:52:09;101621.28;;;4.67;42.94
12209;BME280;6167;43.080;25.634;2023-02-10T12:54:45;101618.00;;;4.86;43.20
12209;BME280;6167;43.080;25.634;2023-02-10T12:57:18;101626.22;;;5.18;42.93
12209;BME280;6167;43.080;25.634;2023-02-10T12:59:53;101610.56;;;5.30;42.10
12209;BME280;6167;43.080;25.634;2023-02-10T13:02:27;101622.34;;;4.82;41.19
12209;BME280;6167;43.080;25.634;2023-02-10T13:05:02;101607.94;;;4.45;41.66
12209;BME280;6167;43.080;25.634;2023-02-10T13:07:36;101606.03;;;5.11;41.65